sensor_id;sensor_type;location;lat;lon;timestamp;P1;durP1;ratioP1;P2;durP2;ratioP2
9082;SDS011;4577;48.704;9.000;2022-10-31T00:02:03;13.63;;;5.30;;
9082;SDS011;4577;48.704;9.000;2022-10-31T00:04:28;13.60;;;6.20;;
9082;SDS011;4577;48.704;9.000;2022-10-31T00:06:54;27.50;;;6.13;;
9082;SDS011;4577;48.704;9.000;2022-10-31T00:09:21;16.70;;;5.30;;
9082;SDS011;4577;48.704;9.000;2022-10-31T00:11:47;13.03;;;5.67;;
9082;SDS011;4577;48.704;9.000;2022-10-31T00:14:13;29.80;;;6.60;;
9082;SDS011;4577;48.704;9.000;2022-10-31T00:16:39;19.33;;;9.80;;
9082;SDS011;4577;48.704;9.000;2022-10-31T00:19:06;25.10;;;13.43;;
9082;SDS011;4577;48.704;9.000;2022-10-31T00:21:33;22.97;;;9.80;;
9082;SDS011;4577;48.704;9.000;2022-10-31T00:23:59;18.57;;;8.10;;
9082;SDS011;4577;48.704;9.000;2022-10-31T00:26:29;11.50;;;6.90;;
9082;SDS011;4577;48.704;9.000;2022-10-31T00:28:56;14.73;;;6.77;;
9082;SDS011;4577;48.704;9.000;2022-10-31T00:31:22;12.53;;;4.90;;
9082;SDS011;4577;48.704;9.000;2022-10-31T00:33:49;11.20;;;4.90;;
9082;SDS011;4577;48.704;9.000;2022-10-31T00:36:16;13.37;;;4.90;;
9082;SDS011;4577;48.704;9.000;2022-10-31T00:38:42;18.33;;;9.10;;
9082;SDS011;4577;48.704;9.000;2022-10-31T00:41:09;27.77;;;16.50;;
9082;SDS011;4577;48.704;9.000;2022-10-31T00:43:35;37.07;;;22.43;;
9082;SDS011;4577;48.704;9.000;2022-10-31T00:46:01;24.10;;;12.67;;
9082;SDS011;4577;48.704;9.000;2022-10-31T00:48:27;22.40;;;9.60;;
9082;SDS011;4577;48.704;9.000;2022-10-31T00:50:53;13.50;;;6.90;;
9082;SDS011;4577;48.704;9.000;2022-10-31T00:53:19;12.80;;;5.60;;
9082;SDS011;4577;48.704;9.000;2022-10-31T00:55:45;21.00;;;5.67;;
9082;SDS011;4577;48.704;9.000;2022-10-31T00:58:11;13.40;;;5.30;;
9082;SDS011;4577;48.704;9.000;2022-10-31T01:00:37;21.87;;;5.87;;
9082;SDS011;4577;48.704;9.000;2022-10-31T01:03:03;11.27;;;4.87;;
9082;SDS011;4577;48.704;9.000;2022-10-31T01:05:28;13.47;;;5.13;;
9082;SDS011;4577;48.704;9.000;2022-10-31T01:07:54;15.43;;;4.63;;
9082;SDS011;4577;48.704;9.000;2022-10-31T01:10:20;13.30;;;4.90;;
9082;SDS011;4577;48.704;9.000;2022-10-31T01:12:46;8.80;;;5.40;;
9082;SDS011;4577;48.704;9.000;2022-10-31T01:15:13;13.30;;;5.20;;
9082;SDS011;4577;48.704;9.000;2022-10-31T01:17:40;21.53;;;5.03;;
9082;SDS011;4577;48.704;9.000;2022-10-31T01:20:07;8.20;;;4.50;;
9082;SDS011;4577;48.704;9.000;2022-10-31T01:22:34;15.10;;;5.40;;
9082;SDS011;4577;48.704;9.000;2022-10-31T01:25:00;11.23;;;4.60;;
9082;SDS011;4577;48.704;9.000;2022-10-31T01:27:26;11.27;;;5.13;;
9082;SDS011;4577;48.704;9.000;2022-10-31T01:29:52;10.43;;;5.43;;
9082;SDS011;4577;48.704;9.000;2022-10-31T01:32:18;11.43;;;4.67;;
9082;SDS011;4577;48.704;9.000;2022-10-31T01:34:43;13.60;;;4.77;;
9082;SDS011;4577;48.704;9.000;2022-10-31T01:37:09;12.70;;;4.40;;
9082;SDS011;4577;48.704;9.000;2022-10-31T01:39:35;10.20;;;5.00;;
9082;SDS011;4577;48.704;9.000;2022-10-31T01:42:01;14.57;;;4.93;;
9082;SDS011;4577;48.704;9.000;2022-10-31T01:49:26;10.83;;;4.80;;
9082;SDS011;4577;48.704;9.000;2022-10-31T01:51:59;14.53;;;5.10;;
9082;SDS011;4577;48.704;9.000;2022-10-31T01:54:27;9.47;;;4.67;;
9082;SDS011;4577;48.704;9.000;2022-10-31T01:56:54;16.67;;;4.90;;
9082;SDS011;4577;48.704;9.000;2022-10-31T01:59:22;17.60;;;4.90;;
9082;SDS011;4577;48.704;9.000;2022-10-31T02:01:51;9.37;;;4.23;;
9082;SDS011;4577;48.704;9.000;2022-10-31T02:04:17;20.20;;;4.33;;
9082;SDS011;4577;48.704;9.000;2022-10-31T02:06:46;14.63;;;4.60;;
9082;SDS011;4577;48.704;9.000;2022-10-31T02:09:16;13.40;;;4.27;;
9082;SDS011;4577;48.704;9.000;2022-10-31T02:11:48;11.70;;;4.27;;
9082;SDS011;4577;48.704;9.000;2022-10-31T02:14:14;15.30;;;4.80;;
9082;SDS011;4577;48.704;9.000;2022-10-31T02:16:40;13.33;;;4.20;;
9082;SDS011;4577;48.704;9.000;2022-10-31T02:19:06;8.40;;;4.40;;
9082;SDS011;4577;48.704;9.000;2022-10-31T02:24:44;10.37;;;4.20;;
9082;SDS011;4577;48.704;9.000;2022-10-31T02:28:02;7.93;;;4.10;;
9082;SDS011;4577;48.704;9.000;2022-10-31T02:30:23;12.87;;;4.93;;
9082;SDS011;4577;48.704;9.000;2022-10-31T02:33:11;9.70;;;4.70;;
9082;SDS011;4577;48.704;9.000;2022-10-31T02:43:37;8.70;;;4.37;;
9082;SDS011;4577;48.704;9.000;2022-10-31T02:48:54;7.40;;;4.37;;
9082;SDS011;4577;48.704;9.000;2022-10-31T02:51:25;8.73;;;4.37;;
9082;SDS011;4577;48.704;9.000;2022-10-31T02:53:51;7.03;;;4.47;;
9082;SDS011;4577;48.704;9.000;2022-10-31T02:56:18;17.47;;;4.63;;
9082;SDS011;4577;48.704;9.000;2022-10-31T03:02:02;12.87;;;6.60;;
9082;SDS011;4577;48.704;9.000;2022-10-31T03:04:35;23.43;;;9.80;;
9082;SDS011;4577;48.704;9.000;2022-10-31T03:15:25;14.87;;;6.40;;
9082;SDS011;4577;48.704;9.000;2022-10-31T03:20:50;9.20;;;4.60;;
9082;SDS011;4577;48.704;9.000;2022-10-31T03:23:21;10.17;;;4.40;;
9082;SDS011;4577;48.704;9.000;2022-10-31T03:25:50;15.27;;;4.90;;
9082;SDS011;4577;48.704;9.000;2022-10-31T03:28:19;9.10;;;4.53;;
9082;SDS011;4577;48.704;9.000;2022-10-31T03:30:51;13.60;;;4.80;;
9082;SDS011;4577;48.704;9.000;2022-10-31T03:33:20;7.77;;;3.87;;
9082;SDS011;4577;48.704;9.000;2022-10-31T03:35:50;7.23;;;4.13;;
9082;SDS011;4577;48.704;9.000;2022-10-31T03:38:20;12.23;;;6.03;;
9082;SDS011;4577;48.704;9.000;2022-10-31T03:40:47;17.70;;;5.50;;
9082;SDS011;4577;48.704;9.000;2022-10-31T03:43:16;15.47;;;6.23;;
9082;SDS011;4577;48.704;9.000;2022-10-31T03:45:46;12.43;;;4.80;;
9082;SDS011;4577;48.704;9.000;2022-10-31T03:48:13;9.40;;;4.50;;
9082;SDS011;4577;48.704;9.000;2022-10-31T03:50:54;14.70;;;4.00;;
9082;SDS011;4577;48.704;9.000;2022-10-31T03:53:47;11.83;;;4.67;;
9082;SDS011;4577;48.704;9.000;2022-10-31T03:56:27;11.87;;;4.20;;
9082;SDS011;4577;48.704;9.000;2022-10-31T03:58:58;9.37;;;4.20;;
9082;SDS011;4577;48.704;9.000;2022-10-31T04:01:31;10.70;;;4.07;;
9082;SDS011;4577;48.704;9.000;2022-10-31T04:03:59;16.20;;;4.67;;
9082;SDS011;4577;48.704;9.000;2022-10-31T04:06:25;13.83;;;4.00;;
9082;SDS011;4577;48.704;9.000;2022-10-31T04:08:53;17.70;;;4.40;;
9082;SDS011;4577;48.704;9.000;2022-10-31T04:11:21;10.90;;;4.50;;
9082;SDS011;4577;48.704;9.000;2022-10-31T04:13:50;11.03;;;4.33;;
9082;SDS011;4577;48.704;9.000;2022-10-31T04:16:17;10.83;;;4.20;;
9082;SDS011;4577;48.704;9.000;2022-10-31T04:18:45;12.63;;;4.57;;
9082;SDS011;4577;48.704;9.000;2022-10-31T04:21:11;14.10;;;4.03;;
9082;SDS011;4577;48.704;9.000;2022-10-31T04:23:37;11.87;;;4.80;;
9082;SDS011;4577;48.704;9.000;2022-10-31T04:26:03;9.60;;;4.30;;
9082;SDS011;4577;48.704;9.000;2022-10-31T04:28:29;15.17;;;4.30;;
9082;SDS011;4577;48.704;9.000;2022-10-31T04:30:55;9.13;;;3.87;;
9082;SDS011;4577;48.704;9.000;2022-10-31T04:33:21;15.37;;;4.30;;
9082;SDS011;4577;48.704;9.000;2022-10-31T04:35:47;17.40;;;3.70;;
9082;SDS011;4577;48.704;9.000;2022-10-31T04:38:13;10.50;;;4.30;;
9082;SDS011;4577;48.704;9.000;2022-10-31T04:40:39;9.53;;;4.10;;
9082;SDS011;4577;48.704;9.000;2022-10-31T04:43:04;15.13;;;4.10;;
9082;SDS011;4577;48.704;9.000;2022-10-31T04:45:30;8.60;;;4.60;;
9082;SDS011;4577;48.704;9.000;2022-10-31T04:47:56;9.37;;;4.00;;
9082;SDS011;4577;48.704;9.000;2022-10-31T04:50:21;5.93;;;4.00;;
9082;SDS011;4577;48.704;9.000;2022-10-31T04:52:47;14.13;;;4.17;;
9082;SDS011;4577;48.704;9.000;2022-10-31T04:55:13;9.43;;;4.47;;
9082;SDS011;4577;48.704;9.000;2022-10-31T04:57:42;12.23;;;4.90;;
9082;SDS011;4577;48.704;9.000;2022-10-31T05:00:10;10.53;;;4.23;;
9082;SDS011;4577;48.704;9.000;2022-10-31T05:03:10;8.10;;;4.10;;
9082;SDS011;4577;48.704;9.000;2022-10-31T05:05:30;8.30;;;3.93;;
9082;SDS011;4577;48.704;9.000;2022-10-31T05:07:56;14.20;;;4.20;;
9082;SDS011;4577;48.704;9.000;2022-10-31T05:10:23;13.83;;;4.63;;
9082;SDS011;4577;48.704;9.000;2022-10-31T05:15:17;16.93;;;4.33;;
9082;SDS011;4577;48.704;9.000;2022-10-31T05:17:44;10.47;;;4.73;;
9082;SDS011;4577;48.704;9.000;2022-10-31T05:20:10;16.90;;;4.60;;
9082;SDS011;4577;48.704;9.000;2022-10-31T05:22:36;18.23;;;4.43;;
9082;SDS011;4577;48.704;9.000;2022-10-31T05:25:02;12.40;;;4.40;;
9082;SDS011;4577;48.704;9.000;2022-10-31T05:27:28;9.70;;;4.40;;
9082;SDS011;4577;48.704;9.000;2022-10-31T05:29:54;11.03;;;4.90;;
9082;SDS011;4577;48.704;9.000;2022-10-31T05:32:20;13.90;;;5.40;;
9082;SDS011;4577;48.704;9.000;2022-10-31T05:34:46;11.50;;;5.33;;
9082;SDS011;4577;48.704;9.000;2022-10-31T05:37:12;12.43;;;5.53;;
9082;SDS011;4577;48.704;9.000;2022-10-31T05:39:38;18.90;;;5.70;;
9082;SDS011;4577;48.704;9.000;2022-10-31T05:42:03;21.10;;;5.00;;
9082;SDS011;4577;48.704;9.000;2022-10-31T05:44:29;7.37;;;4.70;;
9082;SDS011;4577;48.704;9.000;2022-10-31T05:46:55;16.10;;;5.47;;
9082;SDS011;4577;48.704;9.000;2022-10-31T05:49:21;9.10;;;5.20;;
9082;SDS011;4577;48.704;9.000;2022-10-31T05:51:47;7.60;;;4.70;;
9082;SDS011;4577;48.704;9.000;2022-10-31T05:54:13;13.10;;;4.90;;
9082;SDS011;4577;48.704;9.000;2022-10-31T05:56:39;11.13;;;5.00;;
9082;SDS011;4577;48.704;9.000;2022-10-31T05:59:04;15.00;;;5.20;;
9082;SDS011;4577;48.704;9.000;2022-10-31T06:01:30;18.33;;;5.50;;
9082;SDS011;4577;48.704;9.000;2022-10-31T06:03:56;31.80;;;7.97;;
9082;SDS011;4577;48.704;9.000;2022-10-31T06:06:22;14.77;;;6.00;;
9082;SDS011;4577;48.704;9.000;2022-10-31T06:08:48;9.70;;;5.30;;
9082;SDS011;4577;48.704;9.000;2022-10-31T06:11:14;14.03;;;5.30;;
9082;SDS011;4577;48.704;9.000;2022-10-31T06:13:40;9.07;;;5.13;;
9082;SDS011;4577;48.704;9.000;2022-10-31T06:16:06;17.93;;;5.13;;
9082;SDS011;4577;48.704;9.000;2022-10-31T06:18:32;10.60;;;4.77;;
9082;SDS011;4577;48.704;9.000;2022-10-31T06:20:58;9.90;;;4.70;;
9082;SDS011;4577;48.704;9.000;2022-10-31T06:23:24;19.97;;;5.07;;
9082;SDS011;4577;48.704;9.000;2022-10-31T06:25:50;24.70;;;6.27;;
9082;SDS011;4577;48.704;9.000;2022-10-31T06:28:16;19.30;;;6.40;;
9082;SDS011;4577;48.704;9.000;2022-10-31T06:30:42;29.50;;;6.47;;
9082;SDS011;4577;48.704;9.000;2022-10-31T06:33:08;25.37;;;6.20;;
9082;SDS011;4577;48.704;9.000;2022-10-31T06:35:34;14.27;;;6.40;;
9082;SDS011;4577;48.704;9.000;2022-10-31T06:38:00;16.53;;;6.40;;
9082;SDS011;4577;48.704;9.000;2022-10-31T06:40:26;15.43;;;6.23;;
9082;SDS011;4577;48.704;9.000;2022-10-31T06:42:56;20.33;;;7.17;;
9082;SDS011;4577;48.704;9.000;2022-10-31T06:45:22;19.40;;;10.00;;
9082;SDS011;4577;48.704;9.000;2022-10-31T06:47:52;12.90;;;8.00;;
9082;SDS011;4577;48.704;9.000;2022-10-31T06:50:18;20.10;;;7.13;;
9082;SDS011;4577;48.704;9.000;2022-10-31T06:52:49;28.63;;;8.40;;
9082;SDS011;4577;48.704;9.000;2022-10-31T06:55:15;18.40;;;7.90;;
9082;SDS011;4577;48.704;9.000;2022-10-31T06:57:41;18.10;;;7.33;;
9082;SDS011;4577;48.704;9.000;2022-10-31T07:00:07;15.20;;;6.77;;
9082;SDS011;4577;48.704;9.000;2022-10-31T07:02:33;22.33;;;7.57;;
9082;SDS011;4577;48.704;9.000;2022-10-31T07:04:59;28.47;;;8.17;;
9082;SDS011;4577;48.704;9.000;2022-10-31T07:07:25;28.27;;;7.57;;
9082;SDS011;4577;48.704;9.000;2022-10-31T07:09:51;11.77;;;7.47;;
9082;SDS011;4577;48.704;9.000;2022-10-31T07:12:17;13.93;;;5.97;;
9082;SDS011;4577;48.704;9.000;2022-10-31T07:14:43;11.10;;;5.53;;
9082;SDS011;4577;48.704;9.000;2022-10-31T07:17:08;13.10;;;6.40;;
9082;SDS011;4577;48.704;9.000;2022-10-31T07:19:34;14.20;;;6.50;;
9082;SDS011;4577;48.704;9.000;2022-10-31T07:22:00;15.53;;;5.87;;
9082;SDS011;4577;48.704;9.000;2022-10-31T07:24:26;14.57;;;6.30;;
9082;SDS011;4577;48.704;9.000;2022-10-31T07:26:52;16.60;;;6.77;;
9082;SDS011;4577;48.704;9.000;2022-10-31T07:29:18;19.30;;;6.13;;
9082;SDS011;4577;48.704;9.000;2022-10-31T07:31:45;29.53;;;7.90;;
9082;SDS011;4577;48.704;9.000;2022-10-31T07:34:11;24.90;;;9.97;;
9082;SDS011;4577;48.704;9.000;2022-10-31T07:36:37;26.53;;;10.17;;
9082;SDS011;4577;48.704;9.000;2022-10-31T07:39:02;47.47;;;11.43;;
9082;SDS011;4577;48.704;9.000;2022-10-31T07:41:28;47.60;;;13.70;;
9082;SDS011;4577;48.704;9.000;2022-10-31T07:43:54;88.13;;;21.47;;
9082;SDS011;4577;48.704;9.000;2022-10-31T07:46:21;30.90;;;10.43;;
9082;SDS011;4577;48.704;9.000;2022-10-31T07:48:47;21.07;;;10.60;;
9082;SDS011;4577;48.704;9.000;2022-10-31T07:51:13;20.30;;;9.13;;
9082;SDS011;4577;48.704;9.000;2022-10-31T07:53:39;15.97;;;7.53;;
9082;SDS011;4577;48.704;9.000;2022-10-31T07:56:05;24.00;;;7.10;;
9082;SDS011;4577;48.704;9.000;2022-10-31T07:58:31;20.53;;;6.33;;
9082;SDS011;4577;48.704;9.000;2022-10-31T08:00:57;15.90;;;6.50;;
9082;SDS011;4577;48.704;9.000;2022-10-31T08:03:23;16.73;;;6.47;;
9082;SDS011;4577;48.704;9.000;2022-10-31T08:05:49;16.07;;;6.33;;
9082;SDS011;4577;48.704;9.000;2022-10-31T08:08:15;22.07;;;6.70;;
9082;SDS011;4577;48.704;9.000;2022-10-31T08:10:41;15.13;;;6.70;;
9082;SDS011;4577;48.704;9.000;2022-10-31T08:13:10;23.37;;;7.30;;
9082;SDS011;4577;48.704;9.000;2022-10-31T08:15:37;32.63;;;12.90;;
9082;SDS011;4577;48.704;9.000;2022-10-31T08:18:05;42.93;;;19.87;;
9082;SDS011;4577;48.704;9.000;2022-10-31T08:20:31;25.30;;;13.20;;
9082;SDS011;4577;48.704;9.000;2022-10-31T08:22:58;24.07;;;11.83;;
9082;SDS011;4577;48.704;9.000;2022-10-31T08:25:25;39.73;;;21.77;;
9082;SDS011;4577;48.704;9.000;2022-10-31T08:27:54;36.50;;;18.80;;
9082;SDS011;4577;48.704;9.000;2022-10-31T08:30:21;56.43;;;28.20;;
9082;SDS011;4577;48.704;9.000;2022-10-31T08:32:47;38.10;;;18.80;;
9082;SDS011;4577;48.704;9.000;2022-10-31T08:35:21;32.33;;;13.50;;
9082;SDS011;4577;48.704;9.000;2022-10-31T08:37:51;14.17;;;9.30;;
9082;SDS011;4577;48.704;9.000;2022-10-31T08:40:18;27.93;;;8.20;;
9082;SDS011;4577;48.704;9.000;2022-10-31T08:42:44;30.20;;;11.43;;
9082;SDS011;4577;48.704;9.000;2022-10-31T08:45:10;28.60;;;8.53;;
9082;SDS011;4577;48.704;9.000;2022-10-31T08:47:36;23.00;;;7.70;;
9082;SDS011;4577;48.704;9.000;2022-10-31T08:50:02;23.13;;;7.33;;
9082;SDS011;4577;48.704;9.000;2022-10-31T08:52:28;17.90;;;7.30;;
9082;SDS011;4577;48.704;9.000;2022-10-31T08:54:54;13.00;;;6.90;;
9082;SDS011;4577;48.704;9.000;2022-10-31T08:57:20;16.83;;;5.57;;
9082;SDS011;4577;48.704;9.000;2022-10-31T08:59:46;15.60;;;5.77;;
9082;SDS011;4577;48.704;9.000;2022-10-31T09:02:12;11.40;;;5.67;;
9082;SDS011;4577;48.704;9.000;2022-10-31T09:04:38;23.00;;;8.93;;
9082;SDS011;4577;48.704;9.000;2022-10-31T09:07:04;38.30;;;20.73;;
9082;SDS011;4577;48.704;9.000;2022-10-31T09:09:30;24.10;;;11.50;;
9082;SDS011;4577;48.704;9.000;2022-10-31T09:11:56;17.10;;;6.40;;
9082;SDS011;4577;48.704;9.000;2022-10-31T09:14:23;17.17;;;6.77;;
9082;SDS011;4577;48.704;9.000;2022-10-31T09:16:49;19.60;;;6.20;;
9082;SDS011;4577;48.704;9.000;2022-10-31T09:19:16;20.87;;;8.57;;
9082;SDS011;4577;48.704;9.000;2022-10-31T09:21:42;19.03;;;8.50;;
9082;SDS011;4577;48.704;9.000;2022-10-31T09:24:08;16.40;;;7.23;;
9082;SDS011;4577;48.704;9.000;2022-10-31T09:26:34;15.00;;;6.73;;
9082;SDS011;4577;48.704;9.000;2022-10-31T09:29:00;33.20;;;13.10;;
9082;SDS011;4577;48.704;9.000;2022-10-31T09:31:27;19.53;;;11.00;;
9082;SDS011;4577;48.704;9.000;2022-10-31T09:33:53;27.47;;;16.53;;
9082;SDS011;4577;48.704;9.000;2022-10-31T09:36:19;41.23;;;18.70;;
9082;SDS011;4577;48.704;9.000;2022-10-31T09:38:45;33.13;;;11.10;;
9082;SDS011;4577;48.704;9.000;2022-10-31T09:41:24;23.90;;;8.93;;
9082;SDS011;4577;48.704;9.000;2022-10-31T09:44:13;31.13;;;10.33;;
9082;SDS011;4577;48.704;9.000;2022-10-31T09:47:04;25.53;;;11.37;;
9082;SDS011;4577;48.704;9.000;2022-10-31T09:52:04;24.30;;;8.13;;
9082;SDS011;4577;48.704;9.000;2022-10-31T09:57:42;25.30;;;6.67;;
9082;SDS011;4577;48.704;9.000;2022-10-31T10:00:19;23.97;;;7.70;;
9082;SDS011;4577;48.704;9.000;2022-10-31T10:02:49;33.53;;;9.50;;
9082;SDS011;4577;48.704;9.000;2022-10-31T10:05:22;33.00;;;20.07;;
9082;SDS011;4577;48.704;9.000;2022-10-31T10:10:51;26.37;;;9.67;;
9082;SDS011;4577;48.704;9.000;2022-10-31T10:16:38;29.03;;;10.30;;
9082;SDS011;4577;48.704;9.000;2022-10-31T10:27:20;20.10;;;8.10;;
9082;SDS011;4577;48.704;9.000;2022-10-31T10:32:45;54.57;;;16.37;;
9082;SDS011;4577;48.704;9.000;2022-10-31T10:35:29;21.00;;;8.83;;
9082;SDS011;4577;48.704;9.000;2022-10-31T10:38:02;23.63;;;8.30;;
9082;SDS011;4577;48.704;9.000;2022-10-31T10:40:49;15.27;;;7.10;;
9082;SDS011;4577;48.704;9.000;2022-10-31T10:45:58;32.50;;;10.23;;
9082;SDS011;4577;48.704;9.000;2022-10-31T10:49:04;20.07;;;10.37;;
9082;SDS011;4577;48.704;9.000;2022-10-31T11:02:50;23.60;;;8.43;;
9082;SDS011;4577;48.704;9.000;2022-10-31T11:05:24;23.10;;;10.87;;
9082;SDS011;4577;48.704;9.000;2022-10-31T11:07:50;24.87;;;9.57;;
9082;SDS011;4577;48.704;9.000;2022-10-31T11:10:16;30.57;;;10.53;;
9082;SDS011;4577;48.704;9.000;2022-10-31T11:12:42;25.70;;;13.43;;
9082;SDS011;4577;48.704;9.000;2022-10-31T11:15:17;51.17;;;17.10;;
9082;SDS011;4577;48.704;9.000;2022-10-31T11:17:49;53.23;;;23.97;;
9082;SDS011;4577;48.704;9.000;2022-10-31T11:22:43;29.27;;;15.57;;
9082;SDS011;4577;48.704;9.000;2022-10-31T11:28:01;32.10;;;11.20;;
9082;SDS011;4577;48.704;9.000;2022-10-31T11:30:28;15.47;;;8.43;;
9082;SDS011;4577;48.704;9.000;2022-10-31T11:32:56;33.93;;;14.50;;
9082;SDS011;4577;48.704;9.000;2022-10-31T11:35:22;25.23;;;8.77;;
9082;SDS011;4577;48.704;9.000;2022-10-31T11:37:50;29.57;;;9.30;;
9082;SDS011;4577;48.704;9.000;2022-10-31T11:40:25;22.90;;;11.83;;
9082;SDS011;4577;48.704;9.000;2022-10-31T11:42:52;37.93;;;18.70;;
9082;SDS011;4577;48.704;9.000;2022-10-31T11:47:50;20.20;;;8.10;;
9082;SDS011;4577;48.704;9.000;2022-10-31T11:50:21;23.77;;;9.30;;
9082;SDS011;4577;48.704;9.000;2022-10-31T11:52:57;41.00;;;14.83;;
9082;SDS011;4577;48.704;9.000;2022-10-31T11:55:33;68.17;;;21.43;;
9082;SDS011;4577;48.704;9.000;2022-10-31T11:58:03;72.87;;;35.40;;
9082;SDS011;4577;48.704;9.000;2022-10-31T12:00:30;113.03;;;33.10;;
9082;SDS011;4577;48.704;9.000;2022-10-31T12:05:44;61.93;;;20.63;;
9082;SDS011;4577;48.704;9.000;2022-10-31T12:08:23;28.20;;;12.57;;
9082;SDS011;4577;48.704;9.000;2022-10-31T12:13:36;32.40;;;12.87;;
9082;SDS011;4577;48.704;9.000;2022-10-31T12:16:29;77.57;;;32.47;;
9082;SDS011;4577;48.704;9.000;2022-10-31T12:25:04;27.10;;;8.50;;
9082;SDS011;4577;48.704;9.000;2022-10-31T12:36:40;17.73;;;10.17;;
9082;SDS011;4577;48.704;9.000;2022-10-31T12:39:22;21.40;;;10.00;;
9082;SDS011;4577;48.704;9.000;2022-10-31T12:42:01;15.40;;;9.63;;
9082;SDS011;4577;48.704;9.000;2022-10-31T12:47:21;44.23;;;22.17;;
9082;SDS011;4577;48.704;9.000;2022-10-31T12:52:50;33.77;;;12.30;;
9082;SDS011;4577;48.704;9.000;2022-10-31T12:58:01;19.07;;;8.30;;
9082;SDS011;4577;48.704;9.000;2022-10-31T13:00:35;27.27;;;9.90;;
9082;SDS011;4577;48.704;9.000;2022-10-31T13:03:27;28.30;;;14.60;;
9082;SDS011;4577;48.704;9.000;2022-10-31T13:06:18;18.10;;;9.10;;
9082;SDS011;4577;48.704;9.000;2022-10-31T13:09:00;23.40;;;8.40;;
9082;SDS011;4577;48.704;9.000;2022-10-31T13:11:34;23.67;;;8.30;;
9082;SDS011;4577;48.704;9.000;2022-10-31T13:14:05;18.50;;;7.93;;
9082;SDS011;4577;48.704;9.000;2022-10-31T13:16:41;13.93;;;7.07;;
9082;SDS011;4577;48.704;9.000;2022-10-31T13:21:42;16.50;;;10.00;;
9082;SDS011;4577;48.704;9.000;2022-10-31T13:24:14;17.20;;;9.10;;
9082;SDS011;4577;48.704;9.000;2022-10-31T13:31:52;15.20;;;7.00;;
9082;SDS011;4577;48.704;9.000;2022-10-31T13:34:23;14.83;;;5.67;;
9082;SDS011;4577;48.704;9.000;2022-10-31T13:36:57;17.67;;;6.03;;
9082;SDS011;4577;48.704;9.000;2022-10-31T13:44:48;29.47;;;11.60;;
9082;SDS011;4577;48.704;9.000;2022-10-31T13:47:24;20.33;;;10.07;;
9082;SDS011;4577;48.704;9.000;2022-10-31T13:52:52;28.10;;;10.17;;
9082;SDS011;4577;48.704;9.000;2022-10-31T13:58:35;45.63;;;18.63;;
9082;SDS011;4577;48.704;9.000;2022-10-31T14:01:11;17.70;;;5.73;;
9082;SDS011;4577;48.704;9.000;2022-10-31T14:03:41;21.93;;;5.80;;
9082;SDS011;4577;48.704;9.000;2022-10-31T14:06:09;15.83;;;6.27;;
9082;SDS011;4577;48.704;9.000;2022-10-31T14:08:37;13.57;;;4.80;;
9082;SDS011;4577;48.704;9.000;2022-10-31T14:11:06;25.37;;;10.70;;
9082;SDS011;4577;48.704;9.000;2022-10-31T14:13:35;20.53;;;5.97;;
9082;SDS011;4577;48.704;9.000;2022-10-31T14:16:43;18.30;;;5.00;;
9082;SDS011;4577;48.704;9.000;2022-10-31T14:19:13;12.73;;;4.93;;
9082;SDS011;4577;48.704;9.000;2022-10-31T14:21:42;24.70;;;5.83;;
9082;SDS011;4577;48.704;9.000;2022-10-31T14:26:51;9.87;;;4.87;;
9082;SDS011;4577;48.704;9.000;2022-10-31T14:29:22;18.13;;;5.30;;
9082;SDS011;4577;48.704;9.000;2022-10-31T14:31:54;19.03;;;5.37;;
9082;SDS011;4577;48.704;9.000;2022-10-31T14:34:41;38.30;;;7.27;;
9082;SDS011;4577;48.704;9.000;2022-10-31T14:40:33;15.30;;;5.10;;
9082;SDS011;4577;48.704;9.000;2022-10-31T14:46:17;14.53;;;4.70;;
9082;SDS011;4577;48.704;9.000;2022-10-31T14:49:12;11.13;;;5.10;;
9082;SDS011;4577;48.704;9.000;2022-10-31T14:51:47;11.30;;;5.33;;
9082;SDS011;4577;48.704;9.000;2022-10-31T14:54:15;14.87;;;5.20;;
9082;SDS011;4577;48.704;9.000;2022-10-31T14:56:53;13.17;;;5.13;;
9082;SDS011;4577;48.704;9.000;2022-10-31T14:59:23;12.10;;;4.93;;
9082;SDS011;4577;48.704;9.000;2022-10-31T15:01:56;13.53;;;5.47;;
9082;SDS011;4577;48.704;9.000;2022-10-31T15:04:34;20.70;;;6.10;;
9082;SDS011;4577;48.704;9.000;2022-10-31T15:07:05;18.77;;;5.50;;
9082;SDS011;4577;48.704;9.000;2022-10-31T15:09:55;15.53;;;4.90;;
9082;SDS011;4577;48.704;9.000;2022-10-31T15:12:33;21.53;;;5.50;;
9082;SDS011;4577;48.704;9.000;2022-10-31T15:15:12;16.20;;;6.20;;
9082;SDS011;4577;48.704;9.000;2022-10-31T15:18:01;27.50;;;5.90;;
9082;SDS011;4577;48.704;9.000;2022-10-31T15:20:29;13.83;;;5.70;;
9082;SDS011;4577;48.704;9.000;2022-10-31T15:23:00;17.03;;;5.80;;
9082;SDS011;4577;48.704;9.000;2022-10-31T15:25:28;12.80;;;5.60;;
9082;SDS011;4577;48.704;9.000;2022-10-31T15:27:58;11.83;;;5.50;;
9082;SDS011;4577;48.704;9.000;2022-10-31T15:30:25;99.73;;;62.80;;
9082;SDS011;4577;48.704;9.000;2022-10-31T15:32:53;63.90;;;39.70;;
9082;SDS011;4577;48.704;9.000;2022-10-31T15:35:20;19.90;;;9.53;;
9082;SDS011;4577;48.704;9.000;2022-10-31T15:37:51;19.40;;;7.63;;
9082;SDS011;4577;48.704;9.000;2022-10-31T15:40:19;18.60;;;7.97;;
9082;SDS011;4577;48.704;9.000;2022-10-31T15:42:49;16.23;;;7.10;;
9082;SDS011;4577;48.704;9.000;2022-10-31T15:45:23;15.07;;;6.30;;
9082;SDS011;4577;48.704;9.000;2022-10-31T15:48:01;49.50;;;31.20;;
9082;SDS011;4577;48.704;9.000;2022-10-31T15:51:01;78.07;;;46.90;;
9082;SDS011;4577;48.704;9.000;2022-10-31T15:53:38;64.80;;;39.80;;
9082;SDS011;4577;48.704;9.000;2022-10-31T15:56:11;46.20;;;29.70;;
9082;SDS011;4577;48.704;9.000;2022-10-31T15:58:44;35.20;;;19.00;;
9082;SDS011;4577;48.704;9.000;2022-10-31T16:01:20;28.23;;;13.23;;
9082;SDS011;4577;48.704;9.000;2022-10-31T16:04:03;22.37;;;12.50;;
9082;SDS011;4577;48.704;9.000;2022-10-31T16:06:39;21.97;;;10.60;;
9082;SDS011;4577;48.704;9.000;2022-10-31T16:09:21;21.27;;;9.47;;
9082;SDS011;4577;48.704;9.000;2022-10-31T16:11:48;27.37;;;16.60;;
9082;SDS011;4577;48.704;9.000;2022-10-31T16:14:15;24.97;;;14.60;;
9082;SDS011;4577;48.704;9.000;2022-10-31T16:16:51;23.40;;;14.23;;
9082;SDS011;4577;48.704;9.000;2022-10-31T16:19:20;49.30;;;29.50;;
9082;SDS011;4577;48.704;9.000;2022-10-31T16:21:51;71.90;;;41.23;;
9082;SDS011;4577;48.704;9.000;2022-10-31T16:24:33;74.90;;;45.83;;
9082;SDS011;4577;48.704;9.000;2022-10-31T16:27:16;49.20;;;31.63;;
9082;SDS011;4577;48.704;9.000;2022-10-31T16:29:53;41.23;;;26.63;;
9082;SDS011;4577;48.704;9.000;2022-10-31T16:35:16;48.73;;;26.20;;
9082;SDS011;4577;48.704;9.000;2022-10-31T16:38:12;145.27;;;76.77;;
9082;SDS011;4577;48.704;9.000;2022-10-31T16:40:38;118.20;;;63.80;;
9082;SDS011;4577;48.704;9.000;2022-10-31T16:43:04;75.90;;;43.00;;
9082;SDS011;4577;48.704;9.000;2022-10-31T16:45:31;59.70;;;34.33;;
9082;SDS011;4577;48.704;9.000;2022-10-31T16:48:01;50.23;;;31.50;;
9082;SDS011;4577;48.704;9.000;2022-10-31T16:50:30;43.77;;;23.20;;
9082;SDS011;4577;48.704;9.000;2022-10-31T16:52:56;21.50;;;11.90;;
9082;SDS011;4577;48.704;9.000;2022-10-31T16:55:22;36.13;;;15.00;;
9082;SDS011;4577;48.704;9.000;2022-10-31T16:57:49;28.10;;;16.43;;
9082;SDS011;4577;48.704;9.000;2022-10-31T17:00:24;23.83;;;12.50;;
9082;SDS011;4577;48.704;9.000;2022-10-31T17:02:54;24.90;;;15.37;;
9082;SDS011;4577;48.704;9.000;2022-10-31T17:05:24;46.67;;;27.03;;
9082;SDS011;4577;48.704;9.000;2022-10-31T17:07:55;37.30;;;16.83;;
9082;SDS011;4577;48.704;9.000;2022-10-31T17:10:21;25.83;;;12.60;;
9082;SDS011;4577;48.704;9.000;2022-10-31T17:12:48;58.83;;;26.43;;
9082;SDS011;4577;48.704;9.000;2022-10-31T17:15:15;82.90;;;45.33;;
9082;SDS011;4577;48.704;9.000;2022-10-31T17:17:44;78.23;;;45.77;;
9082;SDS011;4577;48.704;9.000;2022-10-31T17:20:32;93.03;;;53.27;;
9082;SDS011;4577;48.704;9.000;2022-10-31T17:22:57;146.50;;;92.40;;
9082;SDS011;4577;48.704;9.000;2022-10-31T17:25:27;185.47;;;129.77;;
9082;SDS011;4577;48.704;9.000;2022-10-31T17:27:55;55.43;;;31.33;;
9082;SDS011;4577;48.704;9.000;2022-10-31T17:30:22;31.30;;;15.70;;
9082;SDS011;4577;48.704;9.000;2022-10-31T17:32:48;29.60;;;12.87;;
9082;SDS011;4577;48.704;9.000;2022-10-31T17:35:15;35.33;;;12.83;;